createdAt,value
2022-10-19T00:00:19.229Z,63.25
2022-10-19T00:01:19.556Z,63.25
2022-10-19T00:02:18.906Z,63.23
2022-10-19T00:03:22.315Z,63.24
2022-10-19T00:04:19.089Z,63.23
2022-10-19T00:05:25.104Z,63.25
2022-10-19T00:06:19.113Z,63.23
2022-10-19T00:07:19.168Z,63.24
2022-10-19T00:08:18.609Z,63.27
2022-10-19T00:09:18.625Z,63.29
2022-10-19T00:10:19.164Z,63.30
2022-10-19T00:11:25.173Z,63.33
2022-10-19T00:12:18.936Z,63.35
2022-10-19T00:13:18.629Z,63.36
2022-10-19T00:14:18.721Z,63.35
2022-10-19T00:15:19.610Z,63.38
2022-10-19T00:16:27.944Z,63.37
2022-10-19T00:17:19.765Z,63.36
2022-10-19T00:18:18.885Z,63.37
2022-10-19T00:19:18.609Z,63.37
2022-10-19T00:20:18.558Z,63.38
2022-10-19T00:21:18.450Z,63.37
2022-10-19T00:22:24.800Z,63.36
2022-10-19T00:23:18.939Z,63.34
2022-10-19T00:24:19.098Z,63.33
2022-10-19T00:25:18.962Z,63.33
2022-10-19T00:26:18.544Z,63.32
2022-10-19T00:27:26.534Z,63.32
2022-10-19T00:28:18.382Z,63.32
2022-10-19T00:29:21.291Z,63.31
2022-10-19T00:30:18.778Z,63.32
2022-10-19T00:31:18.436Z,63.32
2022-10-19T00:32:18.340Z,63.32
2022-10-19T00:33:25.068Z,63.30
2022-10-19T00:34:18.254Z,63.28
2022-10-19T00:35:18.745Z,63.29
2022-10-19T00:36:18.287Z,63.27
2022-10-19T00:37:18.298Z,63.27
2022-10-19T00:38:35.982Z,63.27
2022-10-19T00:39:18.492Z,63.27
2022-10-19T00:40:19.211Z,63.26
2022-10-19T00:41:18.224Z,63.25
2022-10-19T00:42:18.483Z,63.25
2022-10-19T00:43:18.216Z,63.24
2022-10-19T00:44:24.900Z,63.22
2022-10-19T00:45:18.418Z,63.22
2022-10-19T00:46:18.526Z,63.21
2022-10-19T00:47:21.510Z,63.22
2022-10-19T00:48:18.213Z,63.22
2022-10-19T00:49:21.056Z,63.24
2022-10-19T00:50:29.399Z,63.25
2022-10-19T00:51:18.657Z,63.28
2022-10-19T00:52:18.467Z,63.27
2022-10-19T00:53:18.467Z,63.28
2022-10-19T00:54:18.549Z,63.29
2022-10-19T00:55:24.663Z,63.31
2022-10-19T00:56:18.430Z,63.33
2022-10-19T00:57:18.617Z,63.36
2022-10-19T00:58:18.562Z,63.38
2022-10-19T00:59:18.415Z,63.39
2022-10-19T01:00:18.074Z,63.41
2022-10-19T01:01:18.073Z,63.42
2022-10-19T01:02:18.550Z,63.43
2022-10-19T01:03:17.935Z,63.43
2022-10-19T01:04:17.970Z,63.42
2022-10-19T01:05:24.613Z,63.44
2022-10-19T01:06:17.909Z,63.43
2022-10-19T01:07:18.246Z,63.43
2022-10-19T01:08:17.943Z,63.44
2022-10-19T01:09:17.903Z,63.43
2022-10-19T01:10:18.038Z,63.45
2022-10-19T01:11:24.573Z,63.44
2022-10-19T01:12:17.798Z,63.42
2022-10-19T01:13:17.806Z,63.43
2022-10-19T01:14:18.355Z,63.43
2022-10-19T01:15:17.817Z,63.44
2022-10-19T01:16:18.523Z,63.44
2022-10-19T01:17:25.148Z,63.44
2022-10-19T01:18:17.690Z,63.46
2022-10-19T01:19:17.690Z,63.46
2022-10-19T01:20:18.060Z,63.46
2022-10-19T01:21:17.787Z,63.45
2022-10-19T01:22:25.826Z,63.45
2022-10-19T01:23:17.700Z,63.45
2022-10-19T01:24:18.141Z,63.43
2022-10-19T01:25:17.729Z,63.44
2022-10-19T01:26:23.021Z,63.46
2022-10-19T01:27:25.284Z,63.48
2022-10-19T01:28:20.675Z,63.46
2022-10-19T01:29:17.611Z,63.49
2022-10-19T01:30:21.828Z,63.49
2022-10-19T01:31:17.991Z,63.51
2022-10-19T01:32:18.688Z,63.52
2022-10-19T01:33:23.911Z,63.52
2022-10-19T01:34:17.984Z,63.51
2022-10-19T01:35:19.442Z,63.51
2022-10-19T01:36:20.553Z,63.51
2022-10-19T01:37:18.374Z,63.51
2022-10-19T01:38:25.381Z,63.50
2022-10-19T01:39:22.087Z,63.51
2022-10-19T01:40:17.901Z,63.50
2022-10-19T01:41:17.952Z,63.49
2022-10-19T01:42:17.997Z,63.50
2022-10-19T01:43:24.169Z,63.52
2022-10-19T01:44:17.413Z,63.50
2022-10-19T01:45:20.344Z,63.51
2022-10-19T01:46:18.254Z,63.52
2022-10-19T01:47:17.737Z,63.50
2022-10-19T01:48:17.405Z,63.48
2022-10-19T01:49:24.198Z,63.46
2022-10-19T01:50:17.266Z,63.45
2022-10-19T01:51:19.466Z,63.43
2022-10-19T01:52:17.715Z,63.43
2022-10-19T01:53:17.319Z,63.43
2022-10-19T01:54:23.611Z,63.41
2022-10-19T01:55:18.583Z,63.40
2022-10-19T01:56:17.648Z,63.39
2022-10-19T01:57:17.259Z,63.38
2022-10-19T01:58:17.355Z,63.38
2022-10-19T01:59:24.246Z,63.39
2022-10-19T02:00:17.238Z,63.39
2022-10-19T02:01:17.153Z,63.41
2022-10-19T02:02:17.549Z,63.42
2022-10-19T02:03:17.140Z,63.40
2022-10-19T02:04:23.390Z,63.39
2022-10-19T02:05:17.240Z,63.39
2022-10-19T02:06:17.154Z,63.39
2022-10-19T02:07:17.574Z,63.39
2022-10-19T02:08:17.787Z,63.37
2022-10-19T02:09:17.573Z,63.39
2022-10-19T02:10:23.389Z,63.40
2022-10-19T02:11:17.192Z,63.39
2022-10-19T02:12:17.402Z,63.39
2022-10-19T02:13:23.034Z,63.39
2022-10-19T02:14:17.149Z,63.37
2022-10-19T02:15:17.049Z,63.35
2022-10-19T02:16:24.034Z,63.35
2022-10-19T02:17:20.601Z,63.37
2022-10-19T02:18:17.301Z,63.37
2022-10-19T02:19:17.115Z,63.37
2022-10-19T02:20:17.653Z,63.37
2022-10-19T02:21:23.434Z,63.35
2022-10-19T02:22:17.340Z,63.37
2022-10-19T02:23:17.376Z,63.38
2022-10-19T02:24:16.928Z,63.40
2022-10-19T02:25:17.965Z,63.42
2022-10-19T02:26:17.293Z,63.43
2022-10-19T02:27:24.188Z,63.44
2022-10-19T02:28:17.890Z,63.45
2022-10-19T02:29:17.244Z,63.45
2022-10-19T02:30:16.854Z,63.44
2022-10-19T02:31:20.757Z,63.43
2022-10-19T02:32:17.877Z,63.44
2022-10-19T02:33:23.532Z,63.47
2022-10-19T02:34:16.732Z,63.47
2022-10-19T02:35:16.871Z,63.47
2022-10-19T02:36:16.731Z,63.48
2022-10-19T02:37:16.724Z,63.49
2022-10-19T02:38:23.427Z,63.49
2022-10-19T02:39:16.808Z,63.49
2022-10-19T02:40:17.142Z,63.49
2022-10-19T02:41:17.051Z,63.51
2022-10-19T02:42:17.134Z,63.52
2022-10-19T02:43:17.205Z,63.55
2022-10-19T02:44:23.466Z,63.55
2022-10-19T02:45:17.742Z,63.56
2022-10-19T02:46:16.672Z,63.55
2022-10-19T02:47:16.934Z,63.54
2022-10-19T02:48:17.173Z,63.54
2022-10-19T02:49:24.978Z,63.51
2022-10-19T02:50:16.658Z,63.51
2022-10-19T02:51:17.333Z,63.49
2022-10-19T02:52:16.537Z,63.48
2022-10-19T02:53:16.982Z,63.47
2022-10-19T02:54:23.465Z,63.47
2022-10-19T02:55:17.016Z,63.45
2022-10-19T02:56:16.565Z,63.47
2022-10-19T02:57:16.804Z,63.45
2022-10-19T02:58:16.532Z,63.47
2022-10-19T02:59:17.424Z,63.44
2022-10-19T03:00:23.326Z,63.44
2022-10-19T03:01:17.384Z,63.44
2022-10-19T03:02:16.889Z,63.39
2022-10-19T03:03:16.570Z,63.37
2022-10-19T03:04:16.538Z,63.37
2022-10-19T03:05:23.948Z,63.35
2022-10-19T03:06:16.485Z,63.37
2022-10-19T03:07:16.883Z,63.39
2022-10-19T03:08:16.870Z,63.41
2022-10-19T03:09:16.682Z,63.40
2022-10-19T03:10:23.134Z,63.44
2022-10-19T03:11:17.365Z,63.45
2022-10-19T03:12:16.289Z,63.48
2022-10-19T03:13:16.575Z,63.48
2022-10-19T03:14:16.649Z,63.50
2022-10-19T03:15:16.643Z,63.52
2022-10-19T03:16:22.688Z,63.52
2022-10-19T03:17:16.174Z,63.51
2022-10-19T03:18:18.811Z,63.50
2022-10-19T03:19:16.287Z,63.52
2022-10-19T03:20:18.167Z,63.53
2022-10-19T03:21:16.251Z,63.55
2022-10-19T03:22:24.093Z,63.55
2022-10-19T03:23:16.739Z,63.55
2022-10-19T03:24:17.049Z,63.54
2022-10-19T03:25:16.102Z,63.53
2022-10-19T03:26:16.155Z,63.52
2022-10-19T03:27:16.426Z,63.51
2022-10-19T03:28:22.597Z,63.54
2022-10-19T03:29:16.195Z,63.54
2022-10-19T03:30:16.388Z,63.57
2022-10-19T03:31:16.184Z,63.55
2022-10-19T03:32:16.385Z,63.56
2022-10-19T03:33:16.355Z,63.56
2022-10-19T03:34:23.636Z,63.57
2022-10-19T03:35:16.309Z,63.58
2022-10-19T03:36:16.427Z,63.56
2022-10-19T03:37:16.486Z,63.56
2022-10-19T03:38:16.024Z,63.56
2022-10-19T03:39:16.037Z,63.58
2022-10-19T03:40:22.343Z,63.59
2022-10-19T03:41:16.041Z,63.59
2022-10-19T03:42:16.969Z,63.55
2022-10-19T03:43:16.371Z,63.55
2022-10-19T03:44:16.013Z,63.55
2022-10-19T03:45:22.214Z,63.56
2022-10-19T03:46:16.281Z,63.58
2022-10-19T03:47:16.519Z,63.60
2022-10-19T03:48:16.804Z,63.61
2022-10-19T03:49:16.928Z,63.60
2022-10-19T03:50:22.157Z,63.59
2022-10-19T03:51:15.999Z,63.59
2022-10-19T03:52:15.709Z,63.61
2022-10-19T03:53:15.734Z,63.62
2022-10-19T03:54:15.727Z,63.61
2022-10-19T03:55:22.058Z,63.62
2022-10-19T03:56:16.214Z,63.62
2022-10-19T03:57:22.087Z,63.64
2022-10-19T03:58:15.741Z,63.65
2022-10-19T03:59:15.961Z,63.67
2022-10-19T04:00:22.396Z,63.66
2022-10-19T04:01:15.839Z,63.65
2022-10-19T04:02:15.609Z,63.63
2022-10-19T04:03:15.570Z,63.62
2022-10-19T04:04:15.581Z,63.60
2022-10-19T04:05:22.241Z,63.58
2022-10-19T04:06:18.336Z,63.59
2022-10-19T04:07:17.350Z,63.58
2022-10-19T04:08:15.904Z,63.58
2022-10-19T04:09:15.489Z,63.60
2022-10-19T04:10:21.946Z,63.60
2022-10-19T04:11:15.678Z,63.61
2022-10-19T04:12:15.833Z,63.62
2022-10-19T04:13:15.744Z,63.63
2022-10-19T04:14:22.856Z,63.64
2022-10-19T04:15:17.084Z,63.63
2022-10-19T04:16:22.518Z,63.66
2022-10-19T04:17:15.355Z,63.65
2022-10-19T04:18:15.403Z,63.63
2022-10-19T04:19:16.267Z,63.62
2022-10-19T04:20:15.756Z,63.62
2022-10-19T04:21:16.261Z,63.64
2022-10-19T04:22:21.989Z,63.64
2022-10-19T04:24:15.421Z,63.64
2022-10-19T04:25:15.744Z,63.64
2022-10-19T04:26:16.381Z,63.62
2022-10-19T04:27:26.523Z,63.62
2022-10-19T04:28:15.742Z,63.61
2022-10-19T04:29:15.502Z,63.65
2022-10-19T04:30:15.625Z,63.66
2022-10-19T04:31:15.804Z,63.69
2022-10-19T04:32:21.982Z,63.70
2022-10-19T04:33:15.263Z,63.74
2022-10-19T04:34:15.538Z,63.74
2022-10-19T04:35:15.448Z,63.76
2022-10-19T04:36:15.696Z,63.76
2022-10-19T04:37:15.141Z,63.78
2022-10-19T04:38:23.694Z,63.76
2022-10-19T04:39:15.228Z,63.77
2022-10-19T04:40:15.457Z,63.77
2022-10-19T04:41:15.530Z,63.74
2022-10-19T04:42:15.471Z,63.75
2022-10-19T04:43:21.698Z,63.74
2022-10-19T04:44:17.758Z,63.74
2022-10-19T04:45:15.542Z,63.74
2022-10-19T04:46:15.459Z,63.74
2022-10-19T04:47:14.993Z,63.73
2022-10-19T04:48:15.426Z,63.71
2022-10-19T04:49:21.704Z,63.70
2022-10-19T04:50:15.287Z,63.71
2022-10-19T04:51:15.438Z,63.68
2022-10-19T04:52:19.767Z,63.69
2022-10-19T04:53:15.067Z,63.67
2022-10-19T04:54:14.897Z,63.68
2022-10-19T04:55:21.620Z,63.67
2022-10-19T04:56:14.928Z,63.68
2022-10-19T04:57:15.856Z,63.69
2022-10-19T04:58:15.217Z,63.69
2022-10-19T04:59:15.309Z,63.68
2022-10-19T05:00:15.187Z,63.68
2022-10-19T05:01:21.587Z,63.68
2022-10-19T05:02:15.379Z,63.70
2022-10-19T05:03:14.935Z,63.69
2022-10-19T05:04:19.374Z,63.70
2022-10-19T05:05:14.935Z,63.71
2022-10-19T05:06:15.574Z,63.71
2022-10-19T05:07:22.110Z,63.72
2022-10-19T05:08:14.760Z,63.73
2022-10-19T05:09:14.729Z,63.74
2022-10-19T05:10:14.918Z,63.75
2022-10-19T05:11:14.947Z,63.74
2022-10-19T05:12:14.754Z,63.76
2022-10-19T05:13:23.133Z,63.76
2022-10-19T05:14:14.718Z,63.75
2022-10-19T05:15:17.709Z,63.72
2022-10-19T05:16:15.796Z,63.72
2022-10-19T05:17:16.683Z,63.72
2022-10-19T05:18:14.813Z,63.72
2022-10-19T05:19:21.948Z,63.69
2022-10-19T05:20:14.700Z,63.67
2022-10-19T05:21:14.962Z,63.65
2022-10-19T05:22:15.338Z,63.67
2022-10-19T05:23:15.447Z,63.67
2022-10-19T05:24:21.277Z,63.69
2022-10-19T05:25:14.747Z,63.67
2022-10-19T05:26:14.748Z,63.65
2022-10-19T05:27:14.555Z,63.65
2022-10-19T05:28:16.146Z,63.66
2022-10-19T05:29:23.255Z,63.67
2022-10-19T05:30:14.569Z,63.69
2022-10-19T05:31:19.412Z,63.69
2022-10-19T05:32:16.884Z,63.69
2022-10-19T05:33:14.875Z,63.65
2022-10-19T05:34:22.040Z,63.62
2022-10-19T05:35:17.445Z,63.62
2022-10-19T05:36:16.877Z,63.64
2022-10-19T05:37:15.173Z,63.66
2022-10-19T05:38:14.902Z,63.66
2022-10-19T05:39:14.929Z,63.67
2022-10-19T05:40:22.004Z,63.72
2022-10-19T05:41:15.805Z,63.72
2022-10-19T05:42:18.025Z,63.73
2022-10-19T05:43:16.495Z,63.75
2022-10-19T05:44:16.097Z,63.79
2022-10-19T05:45:14.891Z,63.80
2022-10-19T05:46:21.836Z,63.81
2022-10-19T05:47:15.370Z,63.83
2022-10-19T05:48:15.521Z,63.85
2022-10-19T05:49:15.465Z,63.86
2022-10-19T05:50:14.905Z,63.88
2022-10-19T05:51:21.803Z,63.91
2022-10-19T05:52:14.791Z,63.92
2022-10-19T05:53:14.649Z,63.92
2022-10-19T05:54:15.756Z,63.91
2022-10-19T05:55:15.189Z,63.91
2022-10-19T05:56:21.560Z,63.90
2022-10-19T05:57:14.424Z,63.89
2022-10-19T05:58:15.668Z,63.87
2022-10-19T05:59:14.901Z,63.85
2022-10-19T06:00:17.605Z,63.82
2022-10-19T06:01:15.750Z,63.80
2022-10-19T06:02:24.844Z,63.76
2022-10-19T06:03:14.152Z,63.74
2022-10-19T06:04:14.829Z,63.75
2022-10-19T06:05:14.338Z,63.71
2022-10-19T06:06:14.425Z,63.72
2022-10-19T06:07:14.188Z,63.69
2022-10-19T06:08:25.006Z,63.65
2022-10-19T06:09:14.324Z,63.63
2022-10-19T06:10:14.432Z,63.60
2022-10-19T06:11:14.163Z,63.57
2022-10-19T06:12:16.190Z,63.53
2022-10-19T06:13:25.989Z,63.50
2022-10-19T06:14:14.302Z,63.46
2022-10-19T06:15:14.003Z,63.43
2022-10-19T06:16:15.031Z,63.39
2022-10-19T06:17:14.229Z,63.36
2022-10-19T06:18:13.879Z,63.33
2022-10-19T06:19:20.300Z,63.31
2022-10-19T06:20:15.257Z,63.28
2022-10-19T06:21:14.121Z,63.23
2022-10-19T06:22:14.814Z,63.21
2022-10-19T06:23:14.588Z,63.18
2022-10-19T06:24:13.780Z,63.16
2022-10-19T06:25:21.630Z,63.12
2022-10-19T06:26:13.881Z,63.09
2022-10-19T06:27:13.912Z,63.02
2022-10-19T06:28:14.071Z,63.01
2022-10-19T06:29:14.082Z,62.98
2022-10-19T06:30:20.190Z,62.95
2022-10-19T06:31:13.754Z,62.90
2022-10-19T06:32:13.787Z,62.85
2022-10-19T06:33:14.627Z,62.80
2022-10-19T06:34:14.116Z,62.73
2022-10-19T06:35:14.035Z,62.69
2022-10-19T06:36:21.198Z,62.67
2022-10-19T06:37:14.503Z,62.66
2022-10-19T06:38:13.698Z,62.63
2022-10-19T06:39:19.476Z,62.62
2022-10-19T06:40:13.586Z,62.59
2022-10-19T06:41:13.572Z,62.56
2022-10-19T06:42:22.553Z,62.52
2022-10-19T06:43:13.936Z,62.48
2022-10-19T06:44:18.774Z,62.44
2022-10-19T06:45:13.628Z,62.41
2022-10-19T06:46:13.816Z,62.39
2022-10-19T06:47:13.843Z,62.35
2022-10-19T06:48:21.184Z,62.33
2022-10-19T06:49:13.913Z,62.29
2022-10-19T06:50:14.564Z,62.27
2022-10-19T06:51:13.609Z,62.24
2022-10-19T06:52:13.547Z,62.23
2022-10-19T06:53:19.992Z,62.20
2022-10-19T06:54:13.456Z,62.19
2022-10-19T06:55:13.513Z,62.18
2022-10-19T06:56:18.133Z,62.17
2022-10-19T06:57:14.060Z,62.15
2022-10-19T06:58:27.166Z,62.14
2022-10-19T06:59:21.173Z,62.11
2022-10-19T07:00:13.446Z,62.06
2022-10-19T07:01:13.947Z,62.02
2022-10-19T07:02:13.801Z,61.98
2022-10-19T07:03:13.664Z,61.91
2022-10-19T07:04:24.532Z,61.87
2022-10-19T07:05:13.417Z,61.83
2022-10-19T07:06:14.256Z,61.78
2022-10-19T07:07:14.509Z,61.76
2022-10-19T07:08:15.414Z,61.70
2022-10-19T07:09:19.556Z,61.67
2022-10-19T07:10:20.860Z,61.63
2022-10-19T07:11:14.731Z,61.61
2022-10-19T07:12:14.074Z,61.59
2022-10-19T07:13:13.644Z,61.54
2022-10-19T07:14:19.987Z,61.50
2022-10-19T07:15:13.857Z,61.45
2022-10-19T07:16:16.098Z,61.36
2022-10-19T07:17:17.283Z,61.29
2022-10-19T07:18:13.387Z,61.24
2022-10-19T07:19:14.183Z,61.20
2022-10-19T07:20:19.544Z,61.17
2022-10-19T07:21:15.732Z,61.12
2022-10-19T07:22:19.709Z,61.07
2022-10-19T07:23:14.668Z,61.04
2022-10-19T07:24:13.288Z,61.02
2022-10-19T07:25:13.546Z,60.98
2022-10-19T07:26:19.429Z,60.96
2022-10-19T07:27:14.198Z,60.92
2022-10-19T07:28:16.084Z,60.93
2022-10-19T07:29:13.859Z,60.94
2022-10-19T07:30:14.666Z,60.91
2022-10-19T07:31:19.701Z,60.88
2022-10-19T07:32:13.447Z,60.83
2022-10-19T07:33:13.146Z,60.80
2022-10-19T07:34:14.241Z,60.75
2022-10-19T07:35:12.908Z,60.69
2022-10-19T07:36:20.434Z,60.65
2022-10-19T07:37:13.121Z,60.58
2022-10-19T07:38:13.229Z,60.55
2022-10-19T07:39:13.286Z,60.58
2022-10-19T07:40:12.983Z,60.58
2022-10-19T07:41:13.724Z,60.60
2022-10-19T07:42:19.662Z,60.62
2022-10-19T07:43:12.862Z,60.56
2022-10-19T07:44:18.353Z,60.51
2022-10-19T07:45:16.086Z,60.50
2022-10-19T07:46:13.186Z,60.57
2022-10-19T07:47:19.656Z,60.62
2022-10-19T07:48:12.789Z,60.63
2022-10-19T07:49:13.363Z,60.60
2022-10-19T07:50:13.140Z,60.57
2022-10-19T07:51:13.489Z,60.52
2022-10-19T07:52:14.200Z,60.49
2022-10-19T07:53:19.443Z,60.51
2022-10-19T07:54:13.119Z,60.53
2022-10-19T07:55:13.194Z,60.50
2022-10-19T07:56:12.723Z,60.45
2022-10-19T07:57:14.712Z,60.38
2022-10-19T07:58:17.247Z,60.31
2022-10-19T07:59:19.492Z,60.28
2022-10-19T08:00:12.860Z,60.23
2022-10-19T08:01:12.918Z,60.16
2022-10-19T08:02:12.714Z,60.08
2022-10-19T08:05:13.938Z,59.93
2022-10-19T08:06:14.031Z,59.94
2022-10-19T08:07:12.934Z,59.99
2022-10-19T08:08:13.455Z,60.00
2022-10-19T08:09:40.459Z,60.03
2022-10-19T08:10:14.737Z,59.97
2022-10-19T08:11:14.095Z,59.91
2022-10-19T08:12:15.429Z,59.87
2022-10-19T08:13:13.014Z,59.90
2022-10-19T08:14:15.352Z,60.04
2022-10-19T08:15:18.794Z,60.19
2022-10-19T08:16:12.806Z,60.35
2022-10-19T08:17:13.439Z,60.47
2022-10-19T08:18:12.528Z,60.45
2022-10-19T08:19:13.658Z,60.35
2022-10-19T08:20:15.178Z,60.25
2022-10-19T08:21:19.528Z,60.16
2022-10-19T08:22:12.244Z,60.08
2022-10-19T08:23:13.103Z,60.08
2022-10-19T08:24:12.940Z,60.04
2022-10-19T08:25:14.332Z,60.02
2022-10-19T08:26:12.532Z,59.98
2022-10-19T08:27:18.997Z,60.02
2022-10-19T08:28:13.324Z,60.11
2022-10-19T08:29:12.361Z,60.21
2022-10-19T08:30:12.930Z,60.30
2022-10-19T08:31:13.265Z,60.34
2022-10-19T08:32:13.376Z,60.31
2022-10-19T08:33:21.638Z,60.26
2022-10-19T08:34:13.196Z,60.17
2022-10-19T08:35:12.252Z,60.12
2022-10-19T08:36:12.837Z,60.11
2022-10-19T08:37:25.957Z,60.15
2022-10-19T08:38:19.934Z,60.18
2022-10-19T08:39:12.977Z,60.27
2022-10-19T08:40:12.085Z,60.26
2022-10-19T08:41:12.049Z,60.19
2022-10-19T08:42:16.242Z,60.12
2022-10-19T08:43:13.017Z,60.01
2022-10-19T08:44:18.578Z,59.80
2022-10-19T08:45:12.795Z,59.65
2022-10-19T08:46:12.141Z,59.56
2022-10-19T08:47:12.640Z,59.46
2022-10-19T08:48:11.933Z,59.37
2022-10-19T08:49:18.341Z,59.35
2022-10-19T08:50:11.975Z,59.37
2022-10-19T08:51:11.993Z,59.43
2022-10-19T08:52:12.076Z,59.46
2022-10-19T08:53:11.889Z,59.45
2022-10-19T08:54:19.123Z,59.43
2022-10-19T08:55:15.072Z,59.45
2022-10-19T08:56:18.351Z,59.55
2022-10-19T08:57:13.329Z,59.68
2022-10-19T08:58:11.800Z,59.87
2022-10-19T08:59:12.116Z,59.96
2022-10-19T09:00:20.484Z,59.90
2022-10-19T09:01:11.870Z,59.82
2022-10-19T09:02:11.761Z,59.67
2022-10-19T09:03:11.930Z,59.46
2022-10-19T09:04:11.793Z,59.37
2022-10-19T09:05:18.808Z,59.38
2022-10-19T09:06:12.304Z,59.42
2022-10-19T09:07:14.884Z,59.56
2022-10-19T09:08:17.482Z,59.66
2022-10-19T09:09:13.219Z,59.78
2022-10-19T09:10:18.065Z,59.91
2022-10-19T09:11:11.678Z,59.92
2022-10-19T09:12:12.229Z,59.69
2022-10-19T09:13:12.037Z,59.53
2022-10-19T09:14:12.326Z,59.47
2022-10-19T09:15:12.015Z,59.48
2022-10-19T09:16:18.431Z,59.53
2022-10-19T09:17:12.044Z,59.51
2022-10-19T09:18:11.522Z,59.40
2022-10-19T09:19:11.575Z,59.36
2022-10-19T09:20:15.505Z,59.30
2022-10-19T09:21:18.159Z,59.27
2022-10-19T09:22:11.618Z,59.26
2022-10-19T09:23:13.430Z,59.15
2022-10-19T09:24:12.750Z,59.01
2022-10-19T09:25:11.979Z,58.97
2022-10-19T09:26:20.830Z,58.93
2022-10-19T09:27:11.605Z,58.85
2022-10-19T09:28:12.227Z,58.83
2022-10-19T09:29:11.680Z,58.75
2022-10-19T09:30:11.437Z,58.69
2022-10-19T09:31:11.306Z,58.66
2022-10-19T09:32:19.834Z,58.69
2022-10-19T09:33:15.262Z,58.71
2022-10-19T09:34:12.038Z,58.67
2022-10-19T09:35:12.429Z,58.61
2022-10-19T09:36:22.304Z,58.58
2022-10-19T09:37:25.949Z,58.59
2022-10-19T09:38:12.873Z,58.66
2022-10-19T09:39:11.702Z,58.79
2022-10-19T09:40:11.240Z,58.95
2022-10-19T09:41:11.210Z,59.08
2022-10-19T09:42:11.375Z,59.14
2022-10-19T09:43:18.456Z,59.10
2022-10-19T09:44:16.318Z,59.07
2022-10-19T09:45:11.634Z,59.13
2022-10-19T09:46:18.732Z,59.22
2022-10-19T09:47:13.795Z,59.25
2022-10-19T09:48:13.128Z,59.26
2022-10-19T09:49:18.379Z,59.28
2022-10-19T09:50:13.289Z,59.36
2022-10-19T09:51:11.465Z,59.35
2022-10-19T09:52:11.745Z,59.39
2022-10-19T09:53:11.444Z,59.42
2022-10-19T09:54:11.039Z,59.49
2022-10-19T09:55:17.575Z,59.66
2022-10-19T09:56:17.982Z,59.87
2022-10-19T09:57:11.534Z,60.02
2022-10-19T09:58:11.942Z,60.02
2022-10-19T09:59:11.865Z,59.83
2022-10-19T10:00:17.459Z,59.53
2022-10-19T10:01:13.197Z,59.29
2022-10-19T10:02:11.154Z,59.04
2022-10-19T10:03:12.067Z,58.85
2022-10-19T10:04:11.438Z,58.72
2022-10-19T10:05:18.722Z,58.54
2022-10-19T10:06:11.049Z,58.39
2022-10-19T10:07:11.655Z,58.36
2022-10-19T10:08:11.521Z,58.46
2022-10-19T10:09:11.201Z,58.62
2022-10-19T10:10:17.673Z,58.69
2022-10-19T10:11:11.703Z,58.67
2022-10-19T10:12:11.168Z,58.63
2022-10-19T10:13:10.907Z,58.62
2022-10-19T10:14:11.493Z,58.61
2022-10-19T10:15:18.354Z,58.71
2022-10-19T10:16:14.346Z,58.82
2022-10-19T10:17:13.655Z,58.95
2022-10-19T10:18:11.552Z,59.11
2022-10-19T10:19:11.273Z,59.34
2022-10-19T10:20:10.959Z,59.56
2022-10-19T10:21:21.607Z,59.87
2022-10-19T10:22:16.523Z,60.11
2022-10-19T10:23:11.321Z,60.33
2022-10-19T10:24:10.640Z,60.51
2022-10-19T10:25:11.098Z,60.66
2022-10-19T10:26:17.035Z,60.76
2022-10-19T10:27:11.961Z,60.83
2022-10-19T10:28:10.697Z,60.90
2022-10-19T10:29:10.723Z,60.98
2022-10-19T10:30:10.538Z,61.04
2022-10-19T10:31:10.745Z,61.06
2022-10-19T10:32:16.981Z,61.09
2022-10-19T10:33:26.982Z,61.11
2022-10-19T10:34:28.448Z,61.09
2022-10-19T10:35:11.529Z,61.06
2022-10-19T10:36:10.508Z,61.03
2022-10-19T10:37:11.146Z,61.03
2022-10-19T10:38:16.819Z,61.01
2022-10-19T10:39:10.572Z,60.98
2022-10-19T10:40:10.946Z,60.95
2022-10-19T10:41:10.757Z,60.94
2022-10-19T10:42:10.506Z,60.97
2022-10-19T10:43:16.776Z,60.96
2022-10-19T10:44:13.813Z,60.89
2022-10-19T10:45:10.406Z,60.88
2022-10-19T10:46:10.406Z,60.84
2022-10-19T10:47:11.078Z,60.72
2022-10-19T10:48:16.689Z,60.54
2022-10-19T10:49:10.409Z,60.37
2022-10-19T10:50:10.472Z,60.25
2022-10-19T10:51:10.693Z,60.24
2022-10-19T10:52:10.765Z,60.25
2022-10-19T10:53:10.591Z,60.22
2022-10-19T10:54:16.684Z,60.15
2022-10-19T10:55:10.295Z,60.02
2022-10-19T10:56:12.972Z,59.83
2022-10-19T10:57:10.734Z,59.67
2022-10-19T10:58:11.124Z,59.63
2022-10-19T10:59:15.281Z,59.57
2022-10-19T11:00:18.115Z,59.60
2022-10-19T11:01:10.233Z,59.68
2022-10-19T11:02:10.295Z,59.79
2022-10-19T11:03:10.689Z,59.95
2022-10-19T11:04:10.150Z,60.00
2022-10-19T11:05:17.127Z,60.02
2022-10-19T11:06:10.695Z,60.11
2022-10-19T11:07:10.183Z,60.22
2022-10-19T11:08:14.124Z,60.30
2022-10-19T11:09:10.764Z,60.36
2022-10-19T11:10:10.234Z,60.50
2022-10-19T11:11:16.854Z,60.56
2022-10-19T11:12:10.142Z,60.55
2022-10-19T11:13:10.318Z,60.56
2022-10-19T11:14:11.315Z,60.53
2022-10-19T11:15:11.056Z,60.51
2022-10-19T11:16:10.021Z,60.44
2022-10-19T11:17:18.639Z,60.44
2022-10-19T11:18:10.434Z,60.36
2022-10-19T11:19:10.731Z,60.22
2022-10-19T11:20:12.326Z,60.09
2022-10-19T11:21:10.121Z,59.96
2022-10-19T11:22:17.437Z,59.76
2022-10-19T11:23:10.025Z,59.54
2022-10-19T11:24:10.134Z,59.26
2022-10-19T11:25:09.965Z,59.00
2022-10-19T11:26:09.950Z,58.75
2022-10-19T11:27:10.585Z,58.61
2022-10-19T11:28:20.789Z,58.51
2022-10-19T11:29:10.028Z,58.43
2022-10-19T11:30:09.769Z,58.39
2022-10-19T11:31:09.921Z,58.37
2022-10-19T11:32:10.141Z,58.29
2022-10-19T11:33:16.500Z,58.29
2022-10-19T11:34:09.744Z,58.24
2022-10-19T11:35:09.782Z,58.15
2022-10-19T11:36:10.101Z,58.02
2022-10-19T11:37:10.227Z,57.87
2022-10-19T11:38:29.560Z,57.73
2022-10-19T11:39:18.637Z,57.62
2022-10-19T11:40:09.703Z,57.54
2022-10-19T11:41:18.167Z,57.50
2022-10-19T11:42:11.209Z,57.48
2022-10-19T11:43:10.226Z,57.49
2022-10-19T11:44:09.653Z,57.52
2022-10-19T11:45:53.756Z,57.12
2022-10-19T11:46:53.154Z,57.72
2022-10-19T11:47:53.183Z,57.84
2022-10-19T11:48:54.920Z,57.94
2022-10-19T11:49:53.323Z,58.01
2022-10-19T11:51:16.773Z,58.05
2022-10-19T11:51:54.533Z,58.02
2022-10-19T11:52:53.687Z,58.01
2022-10-19T11:53:59.289Z,57.89
2022-10-19T11:54:57.673Z,57.77
2022-10-19T11:55:53.118Z,57.69
2022-10-19T11:57:06.372Z,57.69
2022-10-19T11:57:54.965Z,57.78
2022-10-19T11:58:53.392Z,57.90
2022-10-19T11:59:53.698Z,57.96
2022-10-19T12:00:52.961Z,57.99
2022-10-19T12:01:59.485Z,58.07
2022-10-19T12:02:52.933Z,58.25
2022-10-19T12:03:53.327Z,58.61
2022-10-19T12:04:53.376Z,58.95
2022-10-19T12:05:53.693Z,59.28
2022-10-19T12:06:59.988Z,59.56
2022-10-19T12:07:52.895Z,59.79
2022-10-19T12:08:55.387Z,59.95
2022-10-19T12:09:53.213Z,60.04
2022-10-19T12:10:53.204Z,60.05
2022-10-19T12:12:02.750Z,59.97
2022-10-19T12:12:53.245Z,59.76
2022-10-19T12:13:52.788Z,59.43
2022-10-19T12:14:52.750Z,59.09
2022-10-19T12:15:53.828Z,58.76
2022-10-19T12:16:54.019Z,58.48
2022-10-19T12:17:59.604Z,58.22
2022-10-19T12:18:54.949Z,58.02
2022-10-19T12:19:52.785Z,57.88
2022-10-19T12:21:05.115Z,57.85
2022-10-19T12:21:52.791Z,57.90
2022-10-19T12:22:52.686Z,57.98
2022-10-19T12:24:04.212Z,58.08
2022-10-19T12:24:52.620Z,58.15
2022-10-19T12:25:53.090Z,58.22
2022-10-19T12:26:52.922Z,58.33
2022-10-19T12:27:52.938Z,58.41
2022-10-19T12:28:52.780Z,58.44
2022-10-19T12:30:01.650Z,58.44
2022-10-19T12:30:52.868Z,58.46
2022-10-19T12:31:52.802Z,58.47
2022-10-19T12:32:56.443Z,58.53
2022-10-19T12:33:52.459Z,58.60
2022-10-19T12:34:59.221Z,58.64
2022-10-19T12:35:52.513Z,58.69
2022-10-19T12:36:52.474Z,58.78
2022-10-19T12:37:53.606Z,58.84
2022-10-19T12:39:00.002Z,58.96
2022-10-19T12:40:16.703Z,59.07
2022-10-19T12:40:52.607Z,59.18
2022-10-19T12:41:53.332Z,59.30
2022-10-19T12:42:52.508Z,59.39
2022-10-19T12:43:52.411Z,59.44
2022-10-19T12:44:59.134Z,59.47
2022-10-19T12:45:52.722Z,59.50
2022-10-19T12:46:53.787Z,59.53
2022-10-19T12:47:52.796Z,59.40
2022-10-19T12:48:52.318Z,59.18
2022-10-19T12:49:52.513Z,59.08
2022-10-19T12:51:01.136Z,59.16
2022-10-19T12:51:52.372Z,59.07
2022-10-19T12:52:52.808Z,58.85
2022-10-19T12:53:52.222Z,58.58
2022-10-19T12:54:53.578Z,58.22
2022-10-19T12:55:52.743Z,57.78